YXTR weather

Taree - Wrigley Park Helipad
Taree, New South Wales, Australia

Public forecast

Using degrees Celsius for public forecast. Weather courtesy of forecast.io.

METAR (pilot weather report)

Closest report is Taree Airport, 3.4 nm (6.3 km) ENE. Retrieved 2019/02/18 06:00 UTC (14 minutes ago):

YTRE 180600Z AUTO 07017KT 9999 // NCD 30/17 Q1006

TAF (pilot weather forecast)

Closest forecast is Taree Airport, 3.4 nm (6.3 km) ENE. Retrieved 2019/02/18 02:33 UTC (4 hours ago):

TAF YTRE 180100Z 1802/1814 03010KT CAVOK FM180300 06015G25KT CAVOK FM180800 04010KT CAVOK